Time;durP1;ratioP1;P1;durP2;ratioP2;P2;SDS_P1;SDS_P2;PMS_P1;PMS_P2;Temp;Humidity;BMP_temperature;BMP_pressure;BME280_temperature;BME280_humidity;BME280_pressure;Samples;Min_cycle;Max_cycle;Signal;HPM_P1;HPM_P2
2023/11/08 00:01:06;;;;;;;1.33;0.60;;;8.70;99.90;;;;;;5085165;28;20383;-65
2023/11/08 00:03:33;;;;;;;2.73;1.00;;;8.70;99.90;;;;;;5085441;28;20297;-64
2023/11/08 00:05:59;;;;;;;0.60;0.60;;;8.70;99.90;;;;;;5092790;28;20594;-65
2023/11/08 00:08:26;;;;;;;0.87;0.70;;;8.70;99.90;;;;;;5105979;28;20706;-65
2023/11/08 00:10:55;;;;;;;2.73;1.00;;;8.70;99.90;;;;;;5105656;28;20289;-65
2023/11/08 00:13:22;;;;;;;0.70;0.70;;;8.70;99.90;;;;;;5106200;28;20255;-65
2023/11/08 00:15:48;;;;;;;2.63;0.80;;;8.70;99.90;;;;;;5105581;28;20230;-65
2023/11/08 00:18:17;;;;;;;0.60;0.60;;;8.70;99.90;;;;;;5085005;28;20207;-65
2023/11/08 00:20:45;;;;;;;0.67;0.67;;;8.70;99.90;;;;;;5085282;28;20206;-65
2023/11/08 00:23:12;;;;;;;1.37;0.80;;;8.60;99.90;;;;;;5085548;28;20215;-65
2023/11/08 00:25:39;;;;;;;0.90;0.80;;;8.60;99.90;;;;;;5085230;28;20275;-65
2023/11/08 00:28:05;;;;;;;0.70;0.70;;;8.60;99.90;;;;;;5085472;28;20207;-65
2023/11/08 00:30:32;;;;;;;0.90;0.90;;;8.60;99.90;;;;;;5084793;28;20221;-65
2023/11/08 00:32:59;;;;;;;0.70;0.70;;;8.60;99.90;;;;;;5084967;28;20771;-65
2023/11/08 00:35:27;;;;;;;0.80;0.80;;;8.60;99.90;;;;;;5085081;28;20203;-65
2023/11/08 00:37:54;;;;;;;1.27;0.77;;;8.60;99.90;;;;;;5085367;28;20684;-65
2023/11/08 00:40:21;;;;;;;1.57;0.90;;;8.50;99.90;;;;;;5103112;28;20598;-65
2023/11/08 00:42:48;;;;;;;2.70;0.87;;;8.50;99.90;;;;;;5105605;28;20263;-65
2023/11/08 00:45:15;;;;;;;1.40;0.77;;;8.50;99.90;;;;;;5105826;28;20237;-66
2023/11/08 00:47:43;;;;;;;1.63;0.90;;;8.50;99.90;;;;;;5104999;28;20233;-65
2023/11/08 00:50:10;;;;;;;0.70;0.70;;;8.50;99.90;;;;;;5105356;28;20209;-65
2023/11/08 00:52:38;;;;;;;0.70;0.70;;;8.50;99.90;;;;;;5103686;28;20574;-65
2023/11/08 00:55:06;;;;;;;0.70;0.70;;;8.50;99.90;;;;;;5105430;28;20293;-65
2023/11/08 00:57:33;;;;;;;2.50;0.70;;;8.40;99.90;;;;;;5097970;28;20593;-64
2023/11/08 01:00:00;;;;;;;1.93;1.00;;;8.50;99.90;;;;;;5105362;28;20269;-65
2023/11/08 01:02:27;;;;;;;0.90;0.80;;;8.50;99.90;;;;;;5105380;28;20305;-65
2023/11/08 01:04:54;;;;;;;3.97;1.10;;;8.40;99.90;;;;;;5105416;28;20202;-65
2023/11/08 01:07:21;;;;;;;2.10;0.80;;;8.50;99.90;;;;;;5105457;28;20783;-65
2023/11/08 01:09:49;;;;;;;0.87;0.87;;;8.50;99.90;;;;;;5105686;28;20297;-65
2023/11/08 01:12:16;;;;;;;0.60;0.60;;;8.50;99.90;;;;;;5105002;28;20212;-65
2023/11/08 01:14:43;;;;;;;2.60;0.83;;;8.50;99.90;;;;;;5085052;28;21024;-65
2023/11/08 01:17:11;;;;;;;0.60;0.60;;;8.60;99.90;;;;;;5102028;28;20233;-65
2023/11/08 01:19:37;;;;;;;0.93;0.93;;;8.50;99.90;;;;;;5105381;28;20206;-65
2023/11/08 01:22:05;;;;;;;0.70;0.70;;;8.50;99.90;;;;;;5105215;28;20752;-65
2023/11/08 01:24:32;;;;;;;0.93;0.93;;;8.50;99.90;;;;;;5100463;28;20285;-65
2023/11/08 01:27:01;;;;;;;2.43;0.70;;;8.40;99.90;;;;;;5085403;28;20209;-65
2023/11/08 01:29:28;;;;;;;2.33;0.60;;;8.40;99.90;;;;;;5085487;28;20217;-65
2023/11/08 01:31:55;;;;;;;0.90;0.90;;;8.50;99.90;;;;;;5084651;28;20305;-65
2023/11/08 01:34:22;;;;;;;1.77;1.30;;;8.50;99.90;;;;;;5085155;28;20207;-65
2023/11/08 01:36:49;;;;;;;3.20;1.10;;;8.40;99.90;;;;;;5084865;28;20325;-65
2023/11/08 01:39:17;;;;;;;1.73;1.00;;;8.50;99.90;;;;;;5091589;28;20198;-65
2023/11/08 01:41:48;;;;;;;1.67;1.37;;;8.50;99.90;;;;;;5085588;28;20202;-65
2023/11/08 01:44:18;;;;;;;1.10;1.00;;;8.50;99.90;;;;;;5088853;28;20739;-64
2023/11/08 01:46:47;;;;;;;0.97;0.97;;;8.60;99.90;;;;;;5088756;28;20305;-64
2023/11/08 01:49:14;;;;;;;0.93;0.93;;;8.60;99.90;;;;;;5088393;28;20237;-64
2023/11/08 01:51:41;;;;;;;2.10;1.00;;;8.40;99.90;;;;;;5088732;28;20206;-64
2023/11/08 01:54:09;;;;;;;0.80;0.80;;;8.40;99.90;;;;;;5094187;28;20614;-64
2023/11/08 01:56:38;;;;;;;2.47;1.03;;;8.40;99.90;;;;;;5088336;28;20353;-64
2023/11/08 01:59:08;;;;;;;1.03;1.03;;;8.50;99.90;;;;;;5088588;28;20221;-65
2023/11/08 02:01:36;;;;;;;1.73;0.80;;;8.50;99.90;;;;;;5088255;28;20567;-64
2023/11/08 02:04:04;;;;;;;1.17;1.07;;;8.50;99.90;;;;;;5088491;28;20202;-64
2023/11/08 02:06:32;;;;;;;1.37;1.00;;;8.40;99.90;;;;;;5099892;28;20324;-65
2023/11/08 02:09:00;;;;;;;1.53;1.13;;;8.40;99.90;;;;;;5108450;28;20226;-64
2023/11/08 02:11:27;;;;;;;0.87;0.87;;;8.40;99.90;;;;;;5106005;28;20601;-64
2023/11/08 02:13:54;;;;;;;0.93;0.93;;;8.40;99.90;;;;;;5108690;28;20202;-65
2023/11/08 02:16:21;;;;;;;1.63;1.20;;;8.40;99.90;;;;;;5108149;28;20236;-65
2023/11/08 02:18:49;;;;;;;2.80;1.10;;;8.40;99.90;;;;;;5108042;28;20202;-65
2023/11/08 02:21:17;;;;;;;1.37;1.27;;;8.40;99.90;;;;;;5108355;28;20217;-65
2023/11/08 02:23:44;;;;;;;1.03;1.03;;;8.30;99.90;;;;;;5103068;28;20213;-65
2023/11/08 02:26:12;;;;;;;2.43;1.03;;;8.20;99.90;;;;;;5107314;28;20293;-64
2023/11/08 02:28:39;;;;;;;1.10;1.10;;;8.20;99.90;;;;;;5108129;28;20208;-64
2023/11/08 02:31:06;;;;;;;2.17;1.27;;;8.20;99.90;;;;;;5108062;27;20325;-64
2023/11/08 02:33:33;;;;;;;1.40;1.30;;;8.10;99.90;;;;;;5107765;28;20306;-65
2023/11/08 02:36:01;;;;;;;1.70;1.07;;;8.10;99.90;;;;;;5107857;28;20206;-64
2023/11/08 02:38:28;;;;;;;1.77;1.07;;;8.20;99.90;;;;;;5108141;28;20298;-65
2023/11/08 02:40:56;;;;;;;1.37;1.07;;;8.10;99.90;;;;;;5093448;27;20230;-64
2023/11/08 02:43:25;;;;;;;1.50;1.40;;;8.10;99.90;;;;;;5087579;28;20256;-64
2023/11/08 02:45:53;;;;;;;0.93;0.93;;;8.10;99.90;;;;;;5087081;28;20245;-64
2023/11/08 02:48:21;;;;;;;1.87;0.90;;;8.20;99.90;;;;;;5087122;28;20207;-64
2023/11/08 02:50:49;;;;;;;1.47;1.10;;;8.30;99.90;;;;;;5087045;28;20232;-64
2023/11/08 02:53:16;;;;;;;1.40;1.30;;;8.30;99.90;;;;;;5087158;28;20339;-65
2023/11/08 02:55:44;;;;;;;0.90;0.80;;;8.30;99.90;;;;;;5087190;28;20294;-64
2023/11/08 02:58:10;;;;;;;1.27;0.90;;;8.20;99.90;;;;;;5091143;28;20276;-65
2023/11/08 03:00:39;;;;;;;1.00;1.00;;;8.20;99.90;;;;;;5086790;28;20316;-64
2023/11/08 03:03:06;;;;;;;3.33;1.07;;;8.30;99.90;;;;;;5087477;28;20213;-64
2023/11/08 03:05:33;;;;;;;2.70;1.23;;;8.30;99.90;;;;;;5095009;28;20508;-64
2023/11/08 03:08:00;;;;;;;1.80;1.10;;;8.20;99.90;;;;;;5107743;28;20241;-65
2023/11/08 03:10:27;;;;;;;1.27;1.17;;;8.20;99.90;;;;;;5107752;28;20313;-65
2023/11/08 03:12:54;;;;;;;3.57;1.00;;;8.20;99.90;;;;;;5102164;28;21652;-65
2023/11/08 03:15:22;;;;;;;1.30;1.20;;;8.20;99.90;;;;;;5095195;27;20205;-65
2023/11/08 03:17:51;;;;;;;0.90;0.87;;;8.20;99.90;;;;;;5086658;28;20234;-65
2023/11/08 03:20:19;;;;;;;2.90;1.10;;;8.10;99.90;;;;;;5089658;28;20195;-64
2023/11/08 03:22:46;;;;;;;1.00;1.00;;;8.10;99.90;;;;;;5106600;28;20821;-64
2023/11/08 03:25:16;;;;;;;2.80;1.23;;;8.00;99.90;;;;;;5107077;27;20756;-64
2023/11/08 03:27:44;;;;;;;3.13;1.20;;;8.00;99.90;;;;;;5101093;28;20198;-65
2023/11/08 03:30:13;;;;;;;1.97;1.30;;;8.00;99.90;;;;;;5086321;28;20234;-65
2023/11/08 03:32:40;;;;;;;1.43;1.00;;;8.00;99.90;;;;;;5085518;28;20202;-65
2023/11/08 03:35:10;;;;;;;1.57;1.10;;;8.00;99.90;;;;;;5085202;28;20571;-65
2023/11/08 03:37:37;;;;;;;0.90;0.90;;;8.00;99.90;;;;;;5105705;28;20767;-65
2023/11/08 03:40:05;;;;;;;1.00;1.00;;;8.00;99.90;;;;;;5106062;28;20202;-65
2023/11/08 03:42:34;;;;;;;2.90;1.20;;;8.00;99.90;;;;;;5101633;28;20203;-65
2023/11/08 03:45:01;;;;;;;1.47;1.30;;;8.00;99.90;;;;;;5085071;28;20211;-65
2023/11/08 03:47:28;;;;;;;1.13;1.07;;;8.00;99.90;;;;;;5097276;28;20206;-65
2023/11/08 03:49:55;;;;;;;1.10;1.00;;;7.90;99.90;;;;;;5104973;27;20220;-65
2023/11/08 03:52:24;;;;;;;3.90;1.10;;;7.90;99.90;;;;;;5104837;28;20204;-65
2023/11/08 03:54:51;;;;;;;1.63;0.90;;;7.90;99.90;;;;;;5104568;28;20672;-65
2023/11/08 03:57:19;;;;;;;1.40;1.20;;;8.00;99.90;;;;;;5103064;28;20230;-65
2023/11/08 03:59:46;;;;;;;3.63;1.30;;;8.00;99.90;;;;;;5086478;28;20244;-65
2023/11/08 04:02:13;;;;;;;1.00;1.00;;;8.00;99.90;;;;;;5095479;28;20222;-65
2023/11/08 04:04:42;;;;;;;2.53;1.27;;;7.90;99.90;;;;;;5084389;28;20328;-65
2023/11/08 04:07:09;;;;;;;1.33;1.20;;;7.90;99.90;;;;;;5084785;28;20321;-65
2023/11/08 04:09:37;;;;;;;2.10;1.17;;;7.90;99.90;;;;;;5085275;28;20219;-65
2023/11/08 04:12:04;;;;;;;1.80;1.13;;;8.00;99.90;;;;;;5085039;28;20226;-65
2023/11/08 04:14:31;;;;;;;1.63;0.97;;;7.90;99.90;;;;;;5084864;28;20210;-65
2023/11/08 04:16:59;;;;;;;1.20;1.10;;;8.00;99.90;;;;;;5084965;28;20256;-65
2023/11/08 04:19:25;;;;;;;3.30;1.10;;;8.00;99.90;;;;;;5085934;28;20215;-65
2023/11/08 04:21:52;;;;;;;1.67;1.00;;;7.90;99.90;;;;;;5085647;28;20740;-65
2023/11/08 04:24:19;;;;;;;1.93;1.30;;;7.90;99.90;;;;;;5085487;28;20216;-65
2023/11/08 04:26:48;;;;;;;1.10;1.00;;;7.90;99.90;;;;;;5085709;28;20210;-65
2023/11/08 04:29:14;;;;;;;2.43;1.40;;;7.90;99.90;;;;;;5085468;28;20210;-65
2023/11/08 04:31:41;;;;;;;0.90;0.90;;;7.90;99.90;;;;;;5085480;28;20299;-64
2023/11/08 04:34:08;;;;;;;2.30;1.47;;;8.00;99.90;;;;;;5105929;28;20293;-65
2023/11/08 04:36:34;;;;;;;1.53;1.40;;;8.00;99.90;;;;;;5105633;28;20237;-65
2023/11/08 04:39:01;;;;;;;5.03;1.27;;;8.00;99.90;;;;;;5105415;28;20240;-65
2023/11/08 04:41:28;;;;;;;1.30;1.20;;;8.10;99.90;;;;;;5105453;28;20201;-65
2023/11/08 04:43:57;;;;;;;1.83;1.40;;;8.00;99.90;;;;;;5105025;28;20895;-65
2023/11/08 04:46:23;;;;;;;2.63;1.27;;;8.10;99.90;;;;;;5105210;28;20206;-64
2023/11/08 04:48:50;;;;;;;2.77;1.20;;;8.10;99.90;;;;;;5105280;28;20210;-65
2023/11/08 04:51:17;;;;;;;1.40;1.20;;;8.10;99.90;;;;;;5105178;28;20205;-65
2023/11/08 04:53:44;;;;;;;1.80;1.03;;;8.10;99.90;;;;;;5105411;28;20293;-65
2023/11/08 04:56:11;;;;;;;2.90;1.30;;;8.20;99.90;;;;;;5105492;28;20292;-65
2023/11/08 04:58:38;;;;;;;3.33;1.27;;;8.20;99.90;;;;;;5093427;28;20574;-64
2023/11/08 05:01:06;;;;;;;3.33;1.13;;;8.20;99.90;;;;;;5092317;28;20232;-65
2023/11/08 05:03:33;;;;;;;1.40;1.13;;;8.20;99.90;;;;;;5105198;28;20767;-65
2023/11/08 05:06:00;;;;;;;1.60;1.10;;;8.20;99.90;;;;;;5105163;28;20649;-65
2023/11/08 05:08:27;;;;;;;1.43;1.13;;;8.30;99.90;;;;;;5104966;28;20216;-66
2023/11/08 05:10:54;;;;;;;1.47;1.30;;;8.30;99.90;;;;;;5104869;28;21010;-65
2023/11/08 05:13:20;;;;;;;1.30;1.20;;;8.30;99.90;;;;;;5104917;28;20206;-65
2023/11/08 05:15:47;;;;;;;2.17;1.33;;;8.30;99.90;;;;;;5105002;28;20252;-65
2023/11/08 05:18:16;;;;;;;2.70;1.40;;;8.30;99.90;;;;;;5104967;28;20708;-65
2023/11/08 05:20:43;;;;;;;2.33;1.13;;;8.30;99.90;;;;;;5105313;28;20599;-64
2023/11/08 05:23:09;;;;;;;2.33;1.30;;;8.30;99.90;;;;;;5105144;28;20208;-64
2023/11/08 05:25:39;;;;;;;0.97;0.97;;;8.30;99.90;;;;;;5104806;28;20202;-64
2023/11/08 05:28:07;;;;;;;4.73;1.10;;;8.30;99.90;;;;;;5105004;28;20205;-64
2023/11/08 05:30:35;;;;;;;4.60;2.10;;;8.40;99.90;;;;;;5104586;28;20256;-65
2023/11/08 05:33:02;;;;;;;1.60;1.50;;;8.30;99.90;;;;;;5104724;28;20736;-64
2023/11/08 05:35:31;;;;;;;1.53;1.30;;;8.30;99.90;;;;;;5104951;28;20213;-64
2023/11/08 05:37:58;;;;;;;2.97;1.27;;;8.30;99.90;;;;;;5102204;28;20236;-65
2023/11/08 05:40:25;;;;;;;0.83;0.83;;;8.30;99.90;;;;;;5086480;28;20210;-64
2023/11/08 05:42:53;;;;;;;2.50;1.20;;;8.30;99.90;;;;;;5084752;28;20245;-64
2023/11/08 05:45:21;;;;;;;2.37;1.50;;;8.30;99.90;;;;;;5084483;28;20213;-64
2023/11/08 05:47:48;;;;;;;3.70;1.07;;;8.30;99.90;;;;;;5084257;28;20214;-65
2023/11/08 05:50:15;;;;;;;3.50;1.27;;;8.40;99.90;;;;;;5084481;28;20213;-65
2023/11/08 05:52:43;;;;;;;2.93;1.33;;;8.30;99.90;;;;;;5084067;28;20309;-64
2023/11/08 05:55:11;;;;;;;2.20;1.33;;;8.40;99.90;;;;;;5099100;28;20212;-64
2023/11/08 05:57:38;;;;;;;2.67;1.20;;;8.40;99.90;;;;;;5094435;28;20235;-64
2023/11/08 06:00:08;;;;;;;3.93;1.50;;;8.40;99.90;;;;;;5100041;28;20230;-64
2023/11/08 06:02:35;;;;;;;1.90;0.93;;;8.30;99.90;;;;;;5124595;27;20205;-64
2023/11/08 06:05:04;;;;;;;2.40;1.47;;;8.40;99.90;;;;;;5125204;27;20700;-65
2023/11/08 06:07:31;;;;;;;2.00;1.10;;;8.40;99.90;;;;;;5105120;27;20261;-66
2023/11/08 06:10:00;;;;;;;2.27;1.20;;;8.40;99.90;;;;;;5104977;28;20297;-65
2023/11/08 06:12:27;;;;;;;2.63;1.33;;;8.40;99.90;;;;;;5105068;28;20256;-65
2023/11/08 06:14:55;;;;;;;1.60;1.07;;;8.40;99.90;;;;;;5104743;28;20210;-65
2023/11/08 06:17:22;;;;;;;3.03;1.20;;;8.40;99.90;;;;;;5104862;28;20202;-65
2023/11/08 06:19:49;;;;;;;4.40;1.47;;;8.40;99.90;;;;;;5104677;28;20289;-65
2023/11/08 06:22:16;;;;;;;1.40;1.30;;;8.50;99.90;;;;;;5104948;28;20233;-66
2023/11/08 06:24:43;;;;;;;2.13;1.10;;;8.50;99.90;;;;;;5104916;28;20202;-65
2023/11/08 06:27:12;;;;;;;2.80;1.00;;;8.50;99.90;;;;;;5104688;28;20209;-65
2023/11/08 06:29:39;;;;;;;3.70;1.20;;;8.50;99.90;;;;;;5108289;28;20300;-65
2023/11/08 06:32:07;;;;;;;1.73;0.87;;;8.60;99.90;;;;;;5108119;28;20237;-65
2023/11/08 06:34:34;;;;;;;1.43;0.83;;;8.60;99.90;;;;;;5107843;28;20213;-65
2023/11/08 06:37:01;;;;;;;2.60;1.03;;;8.60;99.90;;;;;;5108010;28;20297;-65
2023/11/08 06:39:28;;;;;;;2.63;1.27;;;8.60;99.90;;;;;;5107892;28;20240;-65
2023/11/08 06:41:56;;;;;;;3.43;1.10;;;8.60;99.90;;;;;;5108118;28;20241;-66
2023/11/08 06:44:24;;;;;;;3.60;1.47;;;8.60;99.90;;;;;;5108348;28;20210;-65
2023/11/08 06:46:52;;;;;;;3.70;1.43;;;8.50;99.90;;;;;;5108184;27;20202;-66
2023/11/08 06:49:19;;;;;;;2.47;1.20;;;8.60;99.90;;;;;;5107741;27;20206;-65
2023/11/08 06:51:46;;;;;;;1.80;1.20;;;8.60;99.90;;;;;;5089184;28;20563;-66
2023/11/08 06:54:13;;;;;;;2.47;1.47;;;8.60;99.90;;;;;;5087660;28;20654;-65
2023/11/08 06:56:40;;;;;;;2.27;1.20;;;8.60;99.90;;;;;;5087760;28;20311;-65
2023/11/08 06:59:07;;;;;;;1.73;1.10;;;8.60;99.90;;;;;;5087267;28;20735;-65
2023/11/08 07:01:37;;;;;;;1.40;1.30;;;8.60;99.90;;;;;;5087156;28;20301;-65
2023/11/08 07:04:05;;;;;;;4.00;1.17;;;8.60;99.90;;;;;;5087454;28;20218;-65
2023/11/08 07:06:32;;;;;;;2.60;1.57;;;8.60;99.90;;;;;;5099208;28;20296;-65
2023/11/08 07:08:59;;;;;;;4.70;1.80;;;8.60;99.90;;;;;;5107838;28;20217;-66
2023/11/08 07:11:27;;;;;;;6.40;2.10;;;8.60;99.90;;;;;;5107574;28;20241;-65
2023/11/08 07:13:55;;;;;;;1.93;1.27;;;8.70;99.90;;;;;;5107432;27;20206;-65
2023/11/08 07:16:21;;;;;;;3.87;1.27;;;8.70;99.90;;;;;;5107233;28;20206;-66
2023/11/08 07:18:50;;;;;;;3.17;1.30;;;8.70;99.90;;;;;;5107303;28;20233;-65
2023/11/08 07:21:20;;;;;;;3.50;1.70;;;8.60;99.90;;;;;;5107664;28;20209;-66
2023/11/08 07:23:47;;;;;;;3.07;1.30;;;8.60;99.90;;;;;;5106700;28;20329;-65
2023/11/08 07:26:15;;;;;;;3.97;1.33;;;8.60;99.90;;;;;;5107127;28;20867;-65
2023/11/08 07:28:43;;;;;;;2.13;1.30;;;8.70;99.90;;;;;;5107136;28;20214;-65
2023/11/08 07:31:11;;;;;;;2.33;1.40;;;8.70;99.90;;;;;;5099939;28;20211;-65
2023/11/08 07:33:38;;;;;;;6.23;1.20;;;8.70;99.90;;;;;;5107433;28;20303;-65
2023/11/08 07:36:07;;;;;;;5.63;1.40;;;8.70;99.90;;;;;;5107247;28;20642;-65
2023/11/08 07:38:34;;;;;;;5.43;2.20;;;8.80;99.90;;;;;;5106355;28;20905;-66
2023/11/08 07:41:02;;;;;;;2.67;1.57;;;8.80;99.90;;;;;;5106370;28;21025;-65
2023/11/08 07:43:29;;;;;;;2.47;1.63;;;8.80;99.90;;;;;;5107292;28;20301;-66
2023/11/08 07:45:57;;;;;;;1.87;1.20;;;8.80;99.90;;;;;;5106080;28;20206;-65
2023/11/08 07:48:24;;;;;;;4.30;1.47;;;8.70;99.90;;;;;;5105553;28;20288;-65
2023/11/08 07:50:51;;;;;;;1.47;1.17;;;8.70;99.90;;;;;;5106517;28;20206;-66
2023/11/08 07:53:20;;;;;;;2.70;1.10;;;8.70;99.90;;;;;;5106295;28;20909;-65
2023/11/08 07:55:49;;;;;;;3.33;2.10;;;8.60;99.90;;;;;;5106438;28;20206;-65
2023/11/08 07:58:17;;;;;;;3.23;1.50;;;8.70;99.90;;;;;;5106211;28;20295;-65
2023/11/08 08:00:45;;;;;;;3.57;1.20;;;8.70;99.90;;;;;;5105790;28;20408;-65
2023/11/08 08:03:14;;;;;;;1.70;1.20;;;8.70;99.90;;;;;;5106425;28;20255;-65
2023/11/08 08:05:41;;;;;;;3.37;1.50;;;8.70;99.90;;;;;;5106508;28;20230;-65
2023/11/08 08:08:08;;;;;;;2.37;1.30;;;8.80;99.90;;;;;;5106620;28;20202;-65
2023/11/08 08:10:37;;;;;;;4.17;1.13;;;8.80;99.90;;;;;;5106587;28;20202;-66
2023/11/08 08:13:04;;;;;;;1.63;1.27;;;8.80;99.90;;;;;;5106867;28;20297;-65
2023/11/08 08:15:31;;;;;;;1.30;1.13;;;8.80;99.90;;;;;;5106506;28;20229;-66
2023/11/08 08:17:58;;;;;;;2.73;1.20;;;8.90;99.90;;;;;;5106549;28;20468;-65
2023/11/08 08:20:27;;;;;;;2.13;1.10;;;8.90;99.90;;;;;;5106240;28;20206;-65
2023/11/08 08:22:55;;;;;;;2.43;1.03;;;8.90;99.90;;;;;;5106221;28;20217;-66
2023/11/08 08:25:22;;;;;;;2.60;1.43;;;8.90;99.90;;;;;;5106290;28;20238;-65
2023/11/08 08:27:51;;;;;;;1.60;1.30;;;8.90;99.90;;;;;;5100378;28;20665;-65
2023/11/08 08:30:18;;;;;;;4.20;1.73;;;8.90;99.90;;;;;;5085615;28;20210;-65
2023/11/08 08:32:45;;;;;;;3.23;1.50;;;9.00;99.90;;;;;;5085203;28;20298;-66
2023/11/08 08:35:12;;;;;;;3.93;1.40;;;9.00;99.90;;;;;;5085593;28;20299;-65
2023/11/08 08:37:39;;;;;;;6.13;1.40;;;9.00;99.90;;;;;;5085760;28;20289;-65
2023/11/08 08:40:10;;;;;;;2.23;1.40;;;9.00;99.90;;;;;;5100805;28;20275;-65
2023/11/08 08:42:37;;;;;;;3.27;1.20;;;9.10;99.90;;;;;;5104319;28;20206;-65
2023/11/08 08:45:07;;;;;;;2.50;1.30;;;9.10;99.90;;;;;;5106593;28;20233;-65
2023/11/08 08:47:35;;;;;;;2.00;1.17;;;9.20;99.90;;;;;;5085452;28;20198;-65
2023/11/08 08:50:02;;;;;;;3.67;1.40;;;9.20;99.90;;;;;;5085975;28;20211;-65
2023/11/08 08:52:29;;;;;;;2.07;1.27;;;9.30;99.90;;;;;;5085895;28;20238;-65
2023/11/08 08:54:55;;;;;;;3.10;1.50;;;9.30;99.90;;;;;;5085804;28;20210;-65
2023/11/08 08:57:23;;;;;;;2.83;1.00;;;9.40;99.90;;;;;;5085491;28;20297;-65
2023/11/08 08:59:50;;;;;;;1.30;1.20;;;9.40;99.90;;;;;;5084781;28;20300;-65
2023/11/08 09:02:19;;;;;;;1.50;1.00;;;9.50;99.90;;;;;;5085024;28;20216;-65
2023/11/08 09:04:46;;;;;;;1.50;1.00;;;9.60;99.90;;;;;;5085074;28;20215;-65
2023/11/08 09:07:12;;;;;;;1.07;0.90;;;9.60;99.90;;;;;;5102602;28;20234;-66
2023/11/08 09:09:39;;;;;;;2.83;1.50;;;9.70;99.90;;;;;;5104771;28;20210;-65
2023/11/08 09:12:07;;;;;;;1.10;1.10;;;9.70;99.90;;;;;;5104922;28;20603;-66
2023/11/08 09:14:34;;;;;;;3.73;1.13;;;9.80;99.90;;;;;;5105275;28;20210;-65
2023/11/08 09:17:01;;;;;;;4.30;1.30;;;9.80;99.90;;;;;;5105181;28;20779;-66
2023/11/08 09:19:30;;;;;;;1.93;1.00;;;9.80;99.90;;;;;;5105203;28;20237;-66
2023/11/08 09:21:57;;;;;;;1.43;1.33;;;9.80;99.90;;;;;;5105468;28;20302;-66
2023/11/08 09:24:24;;;;;;;1.17;1.17;;;9.90;99.90;;;;;;5105277;28;20652;-66
2023/11/08 09:26:50;;;;;;;1.27;1.10;;;9.90;99.90;;;;;;5105411;28;20296;-65
2023/11/08 09:29:18;;;;;;;3.23;1.30;;;9.90;99.90;;;;;;5105205;28;20212;-66
2023/11/08 09:31:47;;;;;;;1.73;1.20;;;9.80;99.90;;;;;;5105134;28;20206;-65
2023/11/08 09:34:14;;;;;;;3.40;1.40;;;9.90;99.90;;;;;;5105069;28;20214;-65
2023/11/08 09:36:44;;;;;;;1.83;1.43;;;9.90;99.90;;;;;;5104780;28;20325;-65
2023/11/08 09:39:11;;;;;;;1.90;1.13;;;9.90;99.90;;;;;;5104305;28;20928;-64
2023/11/08 09:41:38;;;;;;;3.13;1.60;;;9.80;99.90;;;;;;5102822;28;20275;-65
2023/11/08 09:44:07;;;;;;;2.93;1.20;;;9.90;99.90;;;;;;5084555;28;20207;-64
2023/11/08 09:46:35;;;;;;;2.27;1.20;;;9.90;99.90;;;;;;5084061;28;20246;-64
2023/11/08 09:49:02;;;;;;;1.07;1.00;;;9.90;99.90;;;;;;5084356;28;20214;-65
2023/11/08 09:51:29;;;;;;;1.77;1.23;;;10.00;99.90;;;;;;5083934;28;20241;-65
2023/11/08 09:54:00;;;;;;;2.83;1.37;;;10.00;99.90;;;;;;5084322;28;20297;-65
2023/11/08 09:56:28;;;;;;;1.30;1.13;;;10.10;99.90;;;;;;5084470;28;20195;-66
2023/11/08 09:58:57;;;;;;;2.70;1.40;;;10.10;99.90;;;;;;5084180;28;20246;-65
2023/11/08 10:01:30;;;;;;;1.10;1.10;;;10.10;99.90;;;;;;5084211;28;20202;-65
2023/11/08 10:03:59;;;;;;;1.63;1.07;;;10.10;99.90;;;;;;5087845;28;20191;-65
2023/11/08 10:06:27;;;;;;;1.40;1.30;;;10.20;99.90;;;;;;5099657;28;21011;-65
2023/11/08 10:08:54;;;;;;;1.30;1.20;;;10.20;99.90;;;;;;5109066;28;20232;-65
2023/11/08 10:11:24;;;;;;;1.37;1.27;;;10.20;99.90;;;;;;5108863;28;20254;-65
2023/11/08 10:13:53;;;;;;;1.70;1.20;;;10.20;99.90;;;;;;5108651;28;20771;-65
2023/11/08 10:16:22;;;;;;;1.20;1.10;;;10.30;99.90;;;;;;5108229;28;20217;-65
2023/11/08 10:18:56;;;;;;;3.23;1.33;;;10.30;99.90;;;;;;5108190;28;20248;-65
2023/11/08 10:21:25;;;;;;;1.43;1.07;;;10.30;99.90;;;;;;5087830;28;20285;-65
2023/11/08 10:23:54;;;;;;;1.70;1.33;;;10.40;99.90;;;;;;5088392;28;20474;-65
2023/11/08 10:26:26;;;;;;;1.60;1.50;;;10.50;99.90;;;;;;5087946;28;20202;-65
2023/11/08 10:28:58;;;;;;;1.63;1.17;;;10.50;99.90;;;;;;5087893;28;20290;-65
2023/11/08 10:31:35;;;;;;;1.13;1.10;;;10.50;99.90;;;;;;5087483;28;20215;-65
2023/11/08 10:34:03;;;;;;;1.30;1.13;;;10.60;99.90;;;;;;5087771;28;20205;-65
2023/11/08 10:36:33;;;;;;;2.00;1.37;;;10.70;99.90;;;;;;5101958;28;20873;-65
2023/11/08 10:39:00;;;;;;;4.93;1.40;;;10.80;99.90;;;;;;5107886;28;20233;-65
2023/11/08 10:41:29;;;;;;;2.87;1.47;;;10.80;99.90;;;;;;5108148;28;20208;-65
2023/11/08 10:44:22;;;;;;;1.40;1.30;;;10.80;99.90;;;;;;5108185;28;20209;-65
2023/11/08 10:46:56;;;;;;;1.57;1.23;;;10.80;99.90;;;;;;5107703;28;20202;-65
2023/11/08 10:49:24;;;;;;;2.13;1.60;;;10.70;99.90;;;;;;5108357;28;20201;-65
2023/11/08 10:51:53;;;;;;;1.17;1.10;;;10.70;99.90;;;;;;5107910;27;20573;-65
2023/11/08 10:54:20;;;;;;;3.63;1.20;;;10.70;99.90;;;;;;5107830;28;20572;-65
2023/11/08 10:56:51;;;;;;;1.53;1.10;;;10.70;99.90;;;;;;5107276;28;20202;-65
2023/11/08 10:59:19;;;;;;;1.67;1.20;;;10.70;99.90;;;;;;5106979;28;20340;-65
2023/11/08 11:01:48;;;;;;;1.33;1.10;;;10.70;99.90;;;;;;5107098;28;20294;-66
2023/11/08 11:04:17;;;;;;;1.37;1.20;;;10.70;99.90;;;;;;5107243;27;20304;-65
2023/11/08 11:06:47;;;;;;;1.07;0.97;;;10.80;99.90;;;;;;5107295;28;20230;-65
2023/11/08 11:09:16;;;;;;;1.90;1.20;;;10.90;99.90;;;;;;5107574;28;20250;-65
2023/11/08 11:11:46;;;;;;;1.47;1.00;;;10.80;99.90;;;;;;5107142;28;20213;-65
2023/11/08 11:14:27;;;;;;;1.43;1.23;;;10.90;99.90;;;;;;5107292;28;20799;-65
2023/11/08 11:16:58;;;;;;;1.40;1.30;;;10.90;99.90;;;;;;5107666;28;20206;-65
2023/11/08 11:19:30;;;;;;;1.43;1.30;;;10.90;99.90;;;;;;5107868;28;20302;-65
2023/11/08 11:22:02;;;;;;;1.53;1.03;;;10.90;99.90;;;;;;5107352;28;20290;-65
2023/11/08 11:24:42;;;;;;;2.10;1.23;;;10.90;99.90;;;;;;5107802;28;20205;-65
2023/11/08 11:27:10;;;;;;;1.20;1.10;;;10.90;99.90;;;;;;5107272;28;20207;-65
2023/11/08 11:29:41;;;;;;;2.10;1.30;;;10.90;99.90;;;;;;5107364;28;20220;-65
2023/11/08 11:32:32;;;;;;;1.33;1.23;;;10.90;99.90;;;;;;5106328;28;20206;-65
2023/11/08 11:35:02;;;;;;;1.60;1.03;;;10.90;99.90;;;;;;5107032;28;20254;-65
2023/11/08 11:37:29;;;;;;;2.07;1.17;;;11.00;99.90;;;;;;5106565;28;20214;-65
2023/11/08 11:40:18;;;;;;;2.00;1.30;;;10.90;99.90;;;;;;5106671;28;20226;-65
2023/11/08 11:42:45;;;;;;;1.00;1.00;;;10.90;99.90;;;;;;5107087;28;20624;-65
2023/11/08 11:45:17;;;;;;;1.17;1.17;;;10.80;99.90;;;;;;5106805;28;20206;-65
2023/11/08 11:47:50;;;;;;;1.23;0.90;;;10.90;99.90;;;;;;5106868;28;20198;-65
2023/11/08 11:50:20;;;;;;;1.37;1.07;;;10.90;99.90;;;;;;5106902;28;20218;-65
2023/11/08 11:52:49;;;;;;;1.80;1.07;;;11.00;99.90;;;;;;5106800;28;20206;-65
2023/11/08 11:55:19;;;;;;;2.23;1.07;;;11.00;99.90;;;;;;5106723;28;20212;-65
2023/11/08 11:57:47;;;;;;;1.03;0.90;;;11.00;99.90;;;;;;5106952;28;20237;-65
2023/11/08 12:00:16;;;;;;;2.17;1.03;;;11.00;99.90;;;;;;5106586;28;20325;-65
2023/11/08 12:02:44;;;;;;;1.40;1.30;;;11.00;99.90;;;;;;5106715;27;20210;-65
2023/11/08 12:05:13;;;;;;;1.33;0.93;;;11.00;99.90;;;;;;5106837;28;20222;-65
2023/11/08 12:07:40;;;;;;;1.03;0.90;;;11.00;99.90;;;;;;5106486;28;20206;-65
2023/11/08 12:10:10;;;;;;;1.73;0.80;;;11.00;99.90;;;;;;5105780;28;20325;-65
2023/11/08 12:12:38;;;;;;;1.37;1.10;;;11.00;99.90;;;;;;5095550;28;20207;-65
2023/11/08 12:15:20;;;;;;;1.00;1.00;;;11.00;99.90;;;;;;5085801;28;20214;-65
2023/11/08 12:17:51;;;;;;;2.57;1.50;;;11.00;99.90;;;;;;5085559;28;20210;-65
2023/11/08 12:20:20;;;;;;;2.10;1.00;;;11.00;99.90;;;;;;5085657;28;20270;-65
2023/11/08 12:22:48;;;;;;;1.13;0.80;;;11.10;99.90;;;;;;5085673;28;20629;-65
2023/11/08 12:25:18;;;;;;;1.63;1.20;;;11.10;99.90;;;;;;5084907;28;20757;-65
2023/11/08 12:27:45;;;;;;;1.73;1.20;;;11.10;99.90;;;;;;5090687;28;20297;-66
2023/11/08 12:30:12;;;;;;;1.83;1.07;;;11.20;99.90;;;;;;5106063;28;20293;-65
2023/11/08 12:32:41;;;;;;;2.93;1.03;;;11.20;99.90;;;;;;5085308;28;20209;-65
2023/11/08 12:35:09;;;;;;;1.00;1.00;;;11.30;99.90;;;;;;5085869;28;20264;-66
2023/11/08 12:37:37;;;;;;;2.53;1.20;;;11.30;99.90;;;;;;5105986;28;20249;-66
2023/11/08 12:40:21;;;;;;;1.07;0.87;;;11.30;99.90;;;;;;5105504;28;20232;-66
2023/11/08 12:42:48;;;;;;;3.30;1.00;;;11.40;99.90;;;;;;5105913;28;20206;-66
2023/11/08 12:45:29;;;;;;;1.00;1.00;;;11.50;99.90;;;;;;5105745;28;21025;-66
2023/11/08 12:48:04;;;;;;;2.20;1.03;;;11.60;99.90;;;;;;5105381;28;20190;-66
2023/11/08 12:50:32;;;;;;;1.23;1.23;;;12.00;99.90;;;;;;5105231;28;20284;-65
2023/11/08 12:53:00;;;;;;;2.00;1.00;;;12.30;99.90;;;;;;5105254;28;20588;-65
2023/11/08 12:55:27;;;;;;;0.87;0.80;;;12.40;99.90;;;;;;5105360;28;20296;-66
2023/11/08 12:57:54;;;;;;;1.23;1.13;;;12.60;99.90;;;;;;5105821;28;20212;-66
2023/11/08 13:00:41;;;;;;;1.77;0.97;;;12.70;99.90;;;;;;5105095;28;20252;-66